Time;durP1;ratioP1;P1;durP2;ratioP2;P2;SDS_P1;SDS_P2;PMS_P1;PMS_P2;Temp;Humidity;BMP_temperature;BMP_pressure;BME280_temperature;BME280_humidity;BME280_pressure;Samples;Min_cycle;Max_cycle;Signal;HPM_P1;HPM_P2
2022/09/04 00:02:40;;;;;;;14.18;3.30;;;;;;;15.36;48.53;99912.72;5013411;28;20045;-70
2022/09/04 00:05:24;;;;;;;4.85;2.75;;;;;;;15.20;48.73;99886.13;4997290;28;20053;-70
2022/09/04 00:08:03;;;;;;;8.70;2.90;;;;;;;15.24;48.73;99903.47;5014339;28;20045;-71
2022/09/04 00:10:47;;;;;;;6.47;2.75;;;;;;;14.87;49.01;99890.09;4997197;28;20049;-70
2022/09/04 00:13:31;;;;;;;7.82;2.88;;;;;;;15.21;48.64;99907.34;5013329;28;20045;-69
2022/09/04 00:16:03;;;;;;;5.38;2.90;;;;;;;15.19;48.89;99919.28;5013314;28;20049;-70
2022/09/04 00:18:32;;;;;;;5.20;2.88;;;;;;;15.04;48.97;99891.63;5029863;28;20049;-70
2022/09/04 00:21:16;;;;;;;3.78;2.85;;;;;;;15.13;49.27;99902.06;5013299;28;20041;-69
2022/09/04 00:24:03;;;;;;;6.35;3.28;;;;;;;15.11;49.43;99897.94;5012821;28;20038;-75
2022/09/04 00:26:44;;;;;;;4.60;3.10;;;;;;;14.84;49.66;99893.13;5013192;28;20493;-70
2022/09/04 00:29:24;;;;;;;;;;;;;;;15.15;49.28;99899.22;4995724;28;20417;-72
2022/09/04 00:32:03;;;;;;;9.00;3.83;;;;;;;15.13;49.32;99903.91;4978886;28;19921;-72
2022/09/04 00:34:34;;;;;;;6.78;3.83;;;;;;;14.86;49.86;99905.31;5027571;28;20049;-71
2022/09/04 00:37:04;;;;;;;7.45;4.03;;;;;;;15.07;49.66;99907.31;5010820;28;20073;-70
2022/09/04 00:39:38;;;;;;;5.68;3.78;;;;;;;15.11;49.58;99905.94;4994685;28;20125;-72
2022/09/04 00:42:04;;;;;;;5.95;3.60;;;;;;;14.87;49.94;99903.44;4994276;28;20394;-74
2022/09/04 00:44:48;;;;;;;7.03;3.70;;;;;;;14.85;49.81;99900.16;4994680;28;20053;-71
2022/09/04 00:47:47;;;;;;;6.80;4.00;;;;;;;15.05;49.77;99899.47;5012078;28;20041;-69
2022/09/04 00:50:45;;;;;;;5.57;3.92;;;;;;;15.08;49.89;99903.63;5013039;28;20050;-69
2022/09/04 00:53:52;;;;;;;11.63;4.18;;;;;;;15.09;49.93;99910.63;5012880;28;20052;-70
2022/09/04 00:56:40;;;;;;;8.38;4.00;;;;;;;15.05;49.97;99909.34;5015633;28;20048;-70
2022/09/04 00:59:32;;;;;;;9.25;4.10;;;;;;;15.01;49.93;99906.19;4998816;28;20551;-70
2022/09/04 01:02:19;;;;;;;10.65;4.55;;;;;;;15.01;50.04;99911.53;5016150;28;20627;-69
2022/09/04 01:05:06;;;;;;;8.15;4.22;;;;;;;15.01;49.85;99902.69;5029126;28;20505;-69
2022/09/04 01:08:09;;;;;;;6.07;4.03;;;;;;;14.99;49.82;99910.88;5013018;28;20045;-69
2022/09/04 01:10:38;;;;;;;10.07;4.43;;;;;;;14.71;50.06;99907.09;5012864;28;20045;-70
2022/09/04 01:13:12;;;;;;;13.15;4.80;;;;;;;14.64;50.47;99919.50;5012927;28;20596;-69
2022/09/04 01:15:52;;;;;;;9.45;4.57;;;;;;;14.90;50.15;99911.13;5012914;28;20187;-69
2022/09/04 01:18:23;;;;;;;7.80;4.68;;;;;;;14.83;50.67;99911.03;4996280;28;20037;-69
2022/09/04 01:21:19;;;;;;;15.10;4.60;;;;;;;14.85;50.35;99924.22;4996530;28;20080;-70
2022/09/04 01:24:18;;;;;;;12.88;4.88;;;;;;;14.75;50.90;99913.75;5012732;28;20080;-69
2022/09/04 01:27:21;;;;;;;6.93;4.70;;;;;;;14.70;50.88;99923.28;5012799;28;20582;-72
2022/09/04 01:29:56;;;;;;;6.43;4.30;;;;;;;14.59;51.26;99919.19;5012319;28;20048;-70
2022/09/04 01:32:43;;;;;;;10.65;4.50;;;;;;;14.50;51.29;99906.06;5012753;28;20412;-69
2022/09/04 01:35:55;;;;;;;7.50;4.45;;;;;;;14.58;51.15;99916.69;4980173;28;20059;-70
2022/09/04 01:38:30;;;;;;;5.95;3.90;;;;;;;14.48;51.60;99916.94;5000828;28;20057;-70
2022/09/04 01:41:28;;;;;;;6.40;4.25;;;;;;;14.52;51.34;99910.22;4996083;28;20615;-78
2022/09/04 01:43:54;;;;;;;6.53;4.30;;;;;;;14.32;51.72;99914.34;5029374;28;20128;-69
2022/09/04 01:46:57;;;;;;;9.23;3.80;;;;;;;14.58;51.22;99909.50;4996234;28;20469;-73
2022/09/04 01:49:40;;;;;;;8.40;4.18;;;;;;;14.58;51.30;99911.34;5005999;28;20184;-70
2022/09/04 01:52:15;;;;;;;9.27;3.60;;;;;;;14.33;51.37;99909.84;4995972;28;20052;-70
2022/09/04 01:55:02;;;;;;;7.65;4.15;;;;;;;14.57;51.01;99901.69;5012290;28;20046;-70
2022/09/04 01:57:44;;;;;;;10.25;3.80;;;;;;;14.57;51.07;99899.84;5028752;28;20539;-71
2022/09/04 02:00:22;;;;;;;8.95;3.60;;;;;;;14.53;51.07;99895.03;5015914;28;20041;-71
2022/09/04 02:03:00;;;;;;;6.53;3.47;;;;;;;14.53;51.10;99893.16;4999396;28;20489;-69
2022/09/04 02:05:37;;;;;;;13.27;4.07;;;;;;;14.58;51.16;99895.31;5032557;28;20132;-71
2022/09/04 02:08:24;;;;;;;8.13;3.97;;;;;;;14.57;50.99;99891.81;4999395;28;20456;-71
2022/09/04 02:11:15;;;;;;;8.18;3.70;;;;;;;14.56;50.67;99890.13;5015712;28;20416;-71
2022/09/04 02:13:43;;;;;;;10.02;3.97;;;;;;;14.45;50.96;99879.84;4999306;28;20041;-69
2022/09/04 02:16:13;;;;;;;7.55;4.90;;;;;;;14.28;51.28;99894.34;5015541;28;20072;-70
2022/09/04 02:18:43;;;;;;;8.32;4.18;;;;;;;14.28;51.23;99893.50;4983241;28;20095;-70
2022/09/04 02:21:32;;;;;;;12.05;4.25;;;;;;;14.53;51.12;99897.69;5015375;28;20041;-70
2022/09/04 02:24:13;;;;;;;8.80;4.45;;;;;;;14.23;51.44;99906.50;4999362;28;20136;-76
2022/09/04 02:26:49;;;;;;;8.68;3.65;;;;;;;14.44;51.17;99898.72;5032305;28;20116;-69
2022/09/04 02:29:18;;;;;;;6.45;3.90;;;;;;;14.20;51.41;99893.50;4999304;28;20587;-69
2022/09/04 02:32:01;;;;;;;8.65;3.97;;;;;;;14.45;51.28;99895.88;5015284;28;20041;-69
2022/09/04 02:34:39;;;;;;;8.88;4.30;;;;;;;14.50;51.16;99895.38;4999619;28;20123;-70
2022/09/04 02:37:24;;;;;;;6.68;4.00;;;;;;;14.49;51.20;99904.38;5015282;28;20562;-69
2022/09/04 02:40:02;;;;;;;10.77;4.40;;;;;;;14.45;51.33;99895.06;4998882;28;20056;-72
2022/09/04 02:42:38;;;;;;;6.95;3.97;;;;;;;14.46;51.37;99907.41;5015700;28;20057;-76
2022/09/04 02:45:11;;;;;;;7.88;4.13;;;;;;;14.10;51.53;99890.22;5014937;28;20187;-69
2022/09/04 02:47:49;;;;;;;6.00;3.95;;;;;;;14.43;51.46;99908.63;5015118;28;20049;-69
2022/09/04 02:50:37;;;;;;;9.60;4.43;;;;;;;14.50;51.27;99909.56;5014688;28;20045;-70
2022/09/04 02:53:27;;;;;;;7.80;3.85;;;;;;;14.43;51.47;99907.78;5014824;28;20081;-69
2022/09/04 02:56:09;;;;;;;7.78;3.83;;;;;;;14.16;51.61;99905.56;5031173;28;20424;-69
2022/09/04 02:58:48;;;;;;;9.13;4.13;;;;;;;14.20;51.69;99906.88;5015163;28;20103;-69
2022/09/04 03:01:29;;;;;;;6.70;3.58;;;;;;;14.11;51.75;99891.88;5031048;28;20114;-70
2022/09/04 03:04:08;;;;;;;8.30;4.13;;;;;;;14.45;51.58;99911.91;5014478;28;20057;-70
2022/09/04 03:06:47;;;;;;;6.57;3.85;;;;;;;14.37;51.31;99895.97;5014802;28;20042;-70
2022/09/04 03:10:06;;;;;;;11.93;4.90;;;;;;;14.49;51.21;99907.06;5015362;28;20458;-69
2022/09/04 03:12:51;;;;;;;7.57;3.85;;;;;;;14.44;51.45;99902.25;5016721;28;20052;-69
2022/09/04 03:15:56;;;;;;;8.77;4.10;;;;;;;14.51;51.04;99910.41;5016927;28;20045;-70
2022/09/04 03:18:59;;;;;;;6.47;3.97;;;;;;;14.46;51.10;99910.94;4960578;28;20497;-70
2022/09/04 03:21:45;;;;;;;8.02;4.18;;;;;;;14.49;51.00;99921.28;5014183;28;20135;-71
2022/09/04 03:24:19;;;;;;;12.05;4.35;;;;;;;14.49;51.19;99913.25;5030814;28;20415;-72
2022/09/04 03:26:49;;;;;;;8.70;4.40;;;;;;;14.43;51.11;99908.63;5014422;28;20053;-71
2022/09/04 03:29:26;;;;;;;10.13;4.78;;;;;;;14.49;50.91;99907.91;4998198;28;20049;-70
2022/09/04 03:32:10;;;;;;;9.82;4.18;;;;;;;14.44;51.13;99910.28;4997606;28;20045;-68
2022/09/04 03:34:42;;;;;;;6.00;4.43;;;;;;;14.43;51.22;99913.13;4997502;28;20060;-70
2022/09/04 03:37:36;;;;;;;7.60;4.50;;;;;;;14.52;50.65;99909.38;5013914;28;20053;-72
2022/09/04 03:40:24;;;;;;;11.80;4.45;;;;;;;14.50;50.73;99908.75;5030592;28;20405;-69
2022/09/04 03:43:18;;;;;;;9.48;4.40;;;;;;;14.60;50.45;99914.69;5030468;28;20045;-70
2022/09/04 03:45:58;;;;;;;7.47;4.20;;;;;;;14.57;50.52;99915.03;5013633;28;20045;-69
2022/09/04 03:48:49;;;;;;;9.52;4.68;;;;;;;14.57;50.39;99915.03;4997285;28;20038;-68
2022/09/04 03:51:34;;;;;;;7.93;4.65;;;;;;;14.32;50.57;99924.19;5013499;28;20046;-69
2022/09/04 03:54:34;;;;;;;9.25;4.72;;;;;;;14.59;50.17;99911.16;5013729;28;20060;-69
2022/09/04 03:57:28;;;;;;;10.88;5.18;;;;;;;14.57;50.39;99923.06;5013744;28;20084;-69
2022/09/04 04:00:10;;;;;;;9.30;4.78;;;;;;;14.63;49.92;99917.00;5013361;28;20072;-69
2022/09/04 04:02:57;;;;;;;10.32;4.72;;;;;;;14.66;50.05;99922.84;5030058;28;20175;-69
2022/09/04 04:05:35;;;;;;;11.25;5.60;;;;;;;14.42;50.09;99916.81;4997818;28;20191;-70
2022/09/04 04:08:20;;;;;;;8.52;5.38;;;;;;;14.44;50.02;99906.75;5030221;28;20486;-71
2022/09/04 04:11:01;;;;;;;11.93;4.78;;;;;;;14.76;49.56;99920.75;5013324;28;20520;-69
2022/09/04 04:13:53;;;;;;;;;;;;;;;14.86;49.39;99915.16;5013934;28;20095;-69
2022/09/04 04:16:29;;;;;;;11.07;5.68;;;;;;;14.79;49.80;99919.59;5003772;28;20480;-69
2022/09/04 04:19:22;;;;;;;8.27;4.95;;;;;;;14.83;49.58;99911.03;5029651;28;20132;-69
2022/09/04 04:22:00;;;;;;;9.25;5.95;;;;;;;14.88;49.63;99913.16;5012814;28;20056;-69
2022/09/04 04:24:58;;;;;;;9.60;5.40;;;;;;;14.84;49.88;99909.16;5029615;28;20140;-69
2022/09/04 04:27:40;;;;;;;11.25;5.40;;;;;;;14.94;49.60;99901.75;5003713;28;20064;-70
2022/09/04 04:30:13;;;;;;;8.30;5.25;;;;;;;14.96;49.45;99905.09;5029446;28;20055;-73
2022/09/04 04:33:05;;;;;;;14.45;5.47;;;;;;;14.99;49.56;99897.50;5029441;28;20041;-70
2022/09/04 04:35:48;;;;;;;10.68;5.30;;;;;;;15.08;49.55;99904.44;5013105;28;20053;-71
2022/09/04 04:38:23;;;;;;;9.80;5.65;;;;;;;15.04;49.52;99910.34;5029665;28;20131;-69
2022/09/04 04:41:23;;;;;;;9.65;5.95;;;;;;;15.12;49.33;99908.44;5029268;28;20049;-71
2022/09/04 04:44:01;;;;;;;11.98;6.45;;;;;;;15.18;49.28;99914.91;5013554;28;20049;-70
2022/09/04 04:46:38;;;;;;;9.35;5.35;;;;;;;15.18;49.22;99912.22;5012867;28;20136;-70
2022/09/04 04:49:03;;;;;;;9.65;4.95;;;;;;;15.00;49.43;99914.41;4980590;28;20049;-71
2022/09/04 04:52:00;;;;;;;7.72;4.93;;;;;;;15.35;49.10;99915.59;5012748;28;20041;-69
2022/09/04 04:54:38;;;;;;;8.80;5.53;;;;;;;15.35;49.11;99915.59;4996413;28;20192;-70
2022/09/04 04:57:52;;;;;;;8.25;4.80;;;;;;;15.43;48.74;99912.88;5029545;28;20041;-70
2022/09/04 05:00:27;;;;;;;16.08;5.38;;;;;;;15.42;48.74;99916.56;5031183;28;20075;-70
2022/09/04 05:03:15;;;;;;;10.15;4.95;;;;;;;15.55;48.53;99916.75;5014644;28;20048;-70
2022/09/04 05:05:54;;;;;;;9.45;4.95;;;;;;;15.39;48.48;99917.75;5028683;28;20046;-70
2022/09/04 05:08:35;;;;;;;7.20;4.70;;;;;;;15.75;47.86;99924.09;5012764;28;20042;-70
2022/09/04 05:11:11;;;;;;;10.50;5.20;;;;;;;15.69;48.04;99906.06;4996028;28;20059;-70
2022/09/04 05:14:05;;;;;;;8.02;4.60;;;;;;;15.91;47.61;99918.56;4980246;28;20041;-76
2022/09/04 05:16:54;;;;;;;13.05;4.53;;;;;;;16.07;47.06;99923.69;4980062;28;20107;-70
2022/09/04 05:19:43;;;;;;;10.45;4.88;;;;;;;16.15;46.93;99926.28;4995533;28;20052;-70
2022/09/04 05:22:30;;;;;;;8.13;4.53;;;;;;;16.37;46.33;99929.88;5012299;28;20053;-74
2022/09/04 05:25:14;;;;;;;12.10;3.95;;;;;;;16.18;46.05;99928.59;5012223;28;20041;-76
2022/09/04 05:28:06;;;;;;;9.02;4.75;;;;;;;16.51;45.63;99931.72;4996000;28;20102;-70
2022/09/04 05:30:42;;;;;;;6.78;4.15;;;;;;;16.63;45.17;99932.88;5012631;28;20049;-70
2022/09/04 05:33:35;;;;;;;5.85;3.65;;;;;;;16.83;43.71;99939.28;5029497;28;20049;-78
2022/09/04 05:36:16;;;;;;;6.03;3.35;;;;;;;16.88;42.93;99942.25;4983720;28;20055;-70
2022/09/04 05:38:45;;;;;;;;;;;;;;;16.95;41.91;99944.97;5033328;28;20126;-70
2022/09/04 05:41:35;;;;;;;4.68;2.80;;;;;;;17.01;42.14;99945.03;4983374;28;20479;-70
2022/09/04 05:44:33;;;;;;;3.83;2.58;;;;;;;17.02;41.32;99940.50;4999707;28;20050;-72
2022/09/04 05:47:37;;;;;;;5.18;1.95;;;;;;;17.24;39.46;99961.78;5015366;28;20045;-70
2022/09/04 05:50:27;;;;;;;4.32;1.60;;;;;;;17.44;38.09;99962.81;5006175;28;20529;-69
2022/09/04 05:53:02;;;;;;;2.77;1.20;;;;;;;17.52;37.49;99961.84;5015904;28;20519;-70
2022/09/04 05:55:46;;;;;;;1.95;1.23;;;;;;;17.38;37.32;99963.56;4983368;28;20846;-70
2022/09/04 05:58:52;;;;;;;2.65;1.10;;;;;;;17.74;36.31;99963.47;5015603;28;20078;-70
2022/09/04 06:01:37;;;;;;;2.35;1.00;;;;;;;17.84;35.54;99969.31;4999002;28;20049;-69
2022/09/04 06:04:12;;;;;;;1.10;0.75;;;;;;;17.86;35.15;99962.72;5015517;28;20146;-70
2022/09/04 06:06:41;;;;;;;3.75;1.00;;;;;;;17.96;34.92;99963.19;5032331;28;20482;-71
2022/09/04 06:09:23;;;;;;;2.28;1.10;;;;;;;18.08;34.85;99967.00;5015725;28;20076;-70
2022/09/04 06:12:04;;;;;;;3.75;1.30;;;;;;;17.96;34.74;99973.94;4999204;28;20046;-71
2022/09/04 06:14:41;;;;;;;2.30;1.40;;;;;;;18.21;34.89;99948.25;4998942;28;20046;-71
2022/09/04 06:17:45;;;;;;;3.53;1.15;;;;;;;18.50;34.09;99973.25;5015845;28;20133;-73
2022/09/04 06:20:36;;;;;;;4.38;1.10;;;;;;;18.49;33.89;99975.09;5015552;28;20048;-67
2022/09/04 06:23:08;;;;;;;4.85;1.10;;;;;;;18.63;33.70;99968.75;5015637;28;20581;-66
2022/09/04 06:26:05;;;;;;;2.85;0.80;;;;;;;18.70;32.91;99974.16;5032344;28;20045;-66
2022/09/04 06:29:00;;;;;;;4.53;1.13;;;;;;;18.76;33.27;99967.97;5015507;28;20111;-67
2022/09/04 06:31:30;;;;;;;1.75;1.00;;;;;;;18.73;33.13;99979.94;5015427;28;20497;-67
2022/09/04 06:34:27;;;;;;;2.85;0.77;;;;;;;19.05;32.07;99973.81;5015566;28;20056;-67
2022/09/04 06:37:26;;;;;;;3.17;1.58;;;;;;;19.17;32.73;99965.97;5031493;28;20037;-66
2022/09/04 06:40:05;;;;;;;1.20;1.08;;;;;;;19.30;31.99;99971.41;5031458;28;20136;-65
2022/09/04 06:42:41;;;;;;;1.83;1.10;;;;;;;19.54;31.15;99968.91;4998581;28;20064;-66
2022/09/04 06:45:24;;;;;;;1.92;0.90;;;;;;;19.74;30.99;99964.34;5014676;28;20072;-68
2022/09/04 06:48:02;;;;;;;3.83;0.93;;;;;;;19.74;31.04;99948.19;5047668;28;20076;-67
2022/09/04 06:50:43;;;;;;;1.25;1.05;;;;;;;20.00;30.33;99967.00;5031119;28;20045;-68
2022/09/04 06:53:17;;;;;;;;;;;;;;;20.33;30.23;99968.84;5031788;28;20042;-69
2022/09/04 06:56:17;;;;;;;4.78;1.00;;;;;;;20.57;29.73;99968.13;5014856;28;20368;-68
2022/09/04 06:59:07;;;;;;;4.70;1.30;;;;;;;20.76;29.25;99975.28;5013844;28;20095;-70
2022/09/04 07:02:00;;;;;;;1.75;0.80;;;;;;;20.88;28.85;99979.00;5030885;28;20409;-67
2022/09/04 07:04:47;;;;;;;1.20;0.80;;;;;;;20.83;28.73;99952.63;5014330;28;20077;-70
2022/09/04 07:07:29;;;;;;;2.15;0.90;;;;;;;21.07;28.95;99965.41;5014775;28;20041;-69
2022/09/04 07:09:59;;;;;;;1.27;0.90;;;;;;;21.17;28.75;99965.72;4998279;28;20041;-68
2022/09/04 07:12:38;;;;;;;2.90;0.70;;;;;;;21.20;28.11;99964.47;4998357;28;20136;-70
2022/09/04 07:15:11;;;;;;;3.47;0.90;;;;;;;21.41;28.11;99966.81;5032196;28;20045;-69
2022/09/04 07:17:46;;;;;;;2.75;0.70;;;;;;;21.58;27.39;99963.34;5031204;28;20046;-68
2022/09/04 07:20:41;;;;;;;2.38;0.70;;;;;;;21.73;26.95;99963.84;5014528;28;20046;-70
2022/09/04 07:23:21;;;;;;;1.15;0.90;;;;;;;21.89;26.83;99959.78;5016308;28;20164;-69
2022/09/04 07:26:02;;;;;;;1.90;1.02;;;;;;;22.15;26.17;99961.38;5030401;28;20041;-69
2022/09/04 07:28:31;;;;;;;0.98;0.80;;;;;;;22.28;25.83;99955.81;5030748;28;20087;-69
2022/09/04 07:31:06;;;;;;;0.80;0.80;;;;;;;22.85;24.49;99948.03;4997517;28;20048;-67
2022/09/04 07:33:41;;;;;;;1.20;0.88;;;;;;;24.09;22.86;99940.63;5014020;28;20498;-66
2022/09/04 07:36:16;;;;;;;2.97;0.70;;;;;;;27.11;19.77;99938.25;5013723;28;20144;-66
2022/09/04 07:38:56;;;;;;;3.35;0.73;;;;;;;29.30;17.80;99943.38;5014055;28;20057;-69
2022/09/04 07:41:29;;;;;;;1.30;0.70;;;;;;;29.73;16.62;99950.25;5029352;28;20166;-70
2022/09/04 07:44:23;;;;;;;3.35;0.82;;;;;;;31.42;14.67;99946.28;5033227;28;20055;-69
2022/09/04 07:47:13;;;;;;;1.45;0.90;;;;;;;34.25;12.32;99946.66;5048881;28;20049;-69
2022/09/04 07:50:09;;;;;;;5.63;1.63;;;;;;;36.08;10.29;99937.47;5017205;28;20118;-68
2022/09/04 07:52:44;;;;;;;1.42;0.70;;;;;;;36.19;10.27;99933.28;5033192;28;20041;-70
2022/09/04 07:55:32;;;;;;;2.75;1.10;;;;;;;37.79;9.23;99933.88;5032814;28;20139;-70
2022/09/04 07:58:33;;;;;;;4.25;0.90;;;;;;;37.82;9.24;99927.66;5032679;28;20036;-71
2022/09/04 08:01:23;;;;;;;5.28;0.73;;;;;;;36.20;10.50;99929.41;5032707;28;20099;-71
2022/09/04 08:04:13;;;;;;;;;;;;;;;35.75;10.42;99920.38;5049900;28;20049;-72
2022/09/04 08:06:56;;;;;;;4.63;0.70;;;;;;;34.53;11.13;99917.97;5031662;28;19921;-69
2022/09/04 08:09:37;;;;;;;2.53;0.73;;;;;;;36.09;10.48;99903.16;5016385;28;20131;-68
2022/09/04 08:12:25;;;;;;;1.83;0.70;;;;;;;39.24;8.29;99919.25;5032793;28;20094;-69
2022/09/04 08:14:55;;;;;;;1.60;0.80;;;;;;;39.76;7.81;99916.78;5032830;28;20052;-69
2022/09/04 08:17:43;;;;;;;3.13;0.80;;;;;;;41.03;7.13;99919.03;5031932;28;20087;-68
2022/09/04 08:20:30;;;;;;;1.08;0.70;;;;;;;42.22;6.49;99904.88;5032943;28;20124;-69
2022/09/04 08:23:06;;;;;;;3.08;0.80;;;;;;;42.45;5.85;99908.66;5016018;28;20458;-69
2022/09/04 08:25:50;;;;;;;4.68;1.15;;;;;;;43.55;5.40;99910.75;4999449;28;20044;-70
2022/09/04 08:28:34;;;;;;;2.75;0.75;;;;;;;43.92;5.45;99900.66;5015928;28;20052;-68
2022/09/04 08:31:10;;;;;;;1.77;0.65;;;;;;;45.10;4.40;99894.56;5014602;28;20044;-68
2022/09/04 08:33:43;;;;;;;8.18;1.40;;;;;;;46.02;4.06;99891.59;5000053;28;20045;-69
2022/09/04 08:36:35;;;;;;;3.47;0.90;;;;;;;46.68;3.97;99881.25;5049413;28;20148;-70
2022/09/04 08:39:34;;;;;;;0.90;0.85;;;;;;;46.37;3.38;99887.44;4997985;28;20040;-70
2022/09/04 08:42:38;;;;;;;4.70;0.73;;;;;;;46.76;3.22;99886.53;5002783;28;20052;-69
2022/09/04 08:45:45;;;;;;;2.35;0.73;;;;;;;46.62;3.72;99878.03;5030972;28;20049;-69
2022/09/04 08:48:11;;;;;;;1.55;0.75;;;;;;;45.26;4.21;99869.06;5031902;28;20063;-69
2022/09/04 08:50:50;;;;;;;4.82;1.00;;;;;;;43.10;4.99;99869.47;5015793;28;20147;-69
2022/09/04 08:53:19;;;;;;;4.07;0.80;;;;;;;43.52;4.77;99868.72;5016758;28;20079;-68
2022/09/04 08:56:17;;;;;;;3.10;0.90;;;;;;;43.92;4.33;99871.88;5016345;28;20045;-69
2022/09/04 08:59:04;;;;;;;2.67;0.82;;;;;;;42.50;4.94;99863.69;5033071;28;20523;-69
2022/09/04 09:02:09;;;;;;;4.28;1.40;;;;;;;40.53;6.10;99851.81;5016366;28;20127;-69
2022/09/04 09:05:07;;;;;;;5.47;1.05;;;;;;;41.73;5.64;99852.16;5041059;28;20048;-69
2022/09/04 09:07:51;;;;;;;5.82;0.90;;;;;;;43.86;4.74;99840.53;5015884;28;20045;-69
2022/09/04 09:10:55;;;;;;;3.00;0.80;;;;;;;44.16;4.27;99857.47;5036944;28;20044;-69
2022/09/04 09:13:40;;;;;;;1.80;0.90;;;;;;;44.97;4.12;99853.06;5042486;28;20489;-69
2022/09/04 09:16:15;;;;;;;1.27;0.68;;;;;;;45.31;3.90;99832.25;5020046;28;20566;-69
2022/09/04 09:19:06;;;;;;;11.30;1.65;;;;;;;45.05;4.11;99840.78;5036206;28;20056;-69
2022/09/04 09:21:44;;;;;;;1.17;0.65;;;;;;;42.39;5.26;99837.50;5036512;28;20428;-69
2022/09/04 09:24:30;;;;;;;4.25;1.20;;;;;;;39.47;6.66;99830.75;5036583;28;20052;-69
2022/09/04 09:27:10;;;;;;;2.40;1.20;;;;;;;36.66;8.05;99836.41;5054267;28;20123;-68
2022/09/04 09:30:14;;;;;;;2.53;1.30;;;;;;;34.42;9.54;99828.28;5036238;28;20080;-68
2022/09/04 09:32:58;;;;;;;2.35;0.98;;;;;;;32.21;11.24;99828.47;5048353;28;20562;-68
2022/09/04 09:35:56;;;;;;;2.95;1.45;;;;;;;32.03;12.00;99826.53;5019754;28;20048;-68
2022/09/04 09:38:59;;;;;;;5.50;1.10;;;;;;;35.08;9.73;99833.91;5052918;28;20059;-70
2022/09/04 09:41:52;;;;;;;2.17;1.10;;;;;;;36.62;8.98;99829.91;5019761;28;20052;-68
2022/09/04 09:44:27;;;;;;;2.33;1.45;;;;;;;38.06;7.94;99835.56;5020028;28;20041;-68
2022/09/04 09:47:32;;;;;;;2.95;1.52;;;;;;;39.59;6.61;99855.78;5019412;28;20037;-69
2022/09/04 09:50:04;;;;;;;2.90;1.00;;;;;;;41.24;5.66;99839.66;5035592;28;20071;-69
2022/09/04 09:52:42;;;;;;;4.97;0.80;;;;;;;41.80;4.70;99840.38;5019704;28;20137;-69
2022/09/04 09:55:36;;;;;;;1.55;0.50;;;;;;;42.15;4.28;99843.28;5019360;28;20049;-70
2022/09/04 09:59:08;;;;;;;5.43;2.33;;;;;;;43.43;3.69;99831.75;5035531;28;20095;-69
2022/09/04 10:01:49;;;;;;;1.25;0.73;;;;;;;44.09;3.31;99838.56;5018050;28;20459;-69
2022/09/04 10:04:15;;;;;;;0.70;0.60;;;;;;;44.60;3.23;99819.31;5034597;28;20135;-69
2022/09/04 10:07:13;;;;;;;0.60;0.60;;;;;;;44.88;3.53;99813.28;5050898;28;20132;-69
2022/09/04 10:09:54;;;;;;;0.88;0.65;;;;;;;45.18;3.36;99828.13;5017490;28;20132;-69
2022/09/04 10:12:38;;;;;;;1.40;0.50;;;;;;;45.79;2.88;99826.41;5052431;28;20048;-69
2022/09/04 10:15:31;;;;;;;1.00;0.35;;;;;;;45.59;2.99;99830.59;5050847;28;20070;-69
2022/09/04 10:18:13;;;;;;;2.55;0.50;;;;;;;44.03;3.68;99808.44;5034428;28;20493;-69
2022/09/04 10:21:11;;;;;;;1.65;0.60;;;;;;;42.89;4.20;99817.84;5050506;28;20051;-69
2022/09/04 10:24:04;;;;;;;6.18;0.90;;;;;;;43.39;3.79;99822.47;5034376;28;20114;-68
2022/09/04 10:26:55;;;;;;;2.72;1.08;;;;;;;42.94;4.48;99812.81;5050861;28;20055;-69
2022/09/04 10:29:36;;;;;;;2.40;1.20;;;;;;;40.62;5.58;99808.75;5017774;28;20041;-68
2022/09/04 10:32:26;;;;;;;4.45;0.80;;;;;;;37.68;6.88;99793.94;5051861;28;20048;-68
2022/09/04 10:35:08;;;;;;;2.67;0.85;;;;;;;35.80;7.84;99795.81;5017832;28;20052;-68
2022/09/04 10:37:55;;;;;;;0.50;0.50;;;;;;;34.65;8.27;99799.59;5050518;28;20056;-67
2022/09/04 10:41:08;;;;;;;1.67;0.90;;;;;;;36.03;8.07;99785.53;5034113;28;20071;-68
2022/09/04 10:44:09;;;;;;;1.08;0.80;;;;;;;38.06;6.40;99807.81;5018386;28;20450;-68
2022/09/04 10:46:57;;;;;;;1.13;0.60;;;;;;;35.71;8.10;99797.72;5017046;28;20045;-68
2022/09/04 10:49:32;;;;;;;2.50;0.95;;;;;;;34.49;9.33;99783.72;5017609;28;20053;-67
2022/09/04 10:52:23;;;;;;;2.38;0.85;;;;;;;36.13;8.13;99799.03;5051577;28;20052;-68
2022/09/04 10:55:13;;;;;;;1.20;0.82;;;;;;;38.47;7.10;99782.91;5033622;28;20057;-68
2022/09/04 10:57:51;;;;;;;0.77;0.77;;;;;;;40.66;6.07;99804.06;5001127;28;20047;-68
2022/09/04 11:00:21;;;;;;;0.88;0.40;;;;;;;41.81;5.09;99802.97;5033675;28;20042;-68
2022/09/04 11:06:09;;;;;;;3.88;0.70;;;;;;;42.53;4.24;99779.16;5088143;27;20748;-68
2022/09/04 11:08:41;;;;;;;1.23;0.70;;;;;;;43.73;3.96;99794.34;5088400;28;20043;-69
2022/09/04 11:11:23;;;;;;;2.15;0.63;;;;;;;43.46;3.97;99794.66;5086863;28;20067;-68
2022/09/04 11:14:20;;;;;;;0.73;0.50;;;;;;;43.17;3.56;99790.50;5070132;28;20040;-68
2022/09/04 11:17:07;;;;;;;1.27;0.68;;;;;;;42.75;3.92;99784.06;5053240;28;20040;-68
2022/09/04 11:19:42;;;;;;;2.63;0.65;;;;;;;41.79;4.76;99780.19;5053489;28;20071;-68
2022/09/04 11:22:38;;;;;;;2.42;0.70;;;;;;;40.51;4.80;99763.03;5086928;28;20105;-68
2022/09/04 11:25:25;;;;;;;0.80;0.80;;;;;;;38.82;5.60;99769.56;5087667;28;20097;-68
2022/09/04 11:27:53;;;;;;;1.17;0.80;;;;;;;36.88;6.54;99752.41;5069574;28;20043;-72
2022/09/04 11:30:24;;;;;;;2.15;1.23;;;;;;;35.83;7.20;99748.19;5052800;28;20554;-68
2022/09/04 11:32:56;;;;;;;2.25;0.70;;;;;;;34.24;7.95;99752.00;5069468;28;20040;-68
2022/09/04 11:35:50;;;;;;;1.65;0.80;;;;;;;33.38;9.18;99758.47;5070008;28;20083;-68
2022/09/04 11:38:54;;;;;;;4.35;1.10;;;;;;;31.99;10.44;99757.59;5052828;28;20066;-68
2022/09/04 11:41:42;;;;;;;6.95;1.10;;;;;;;30.58;11.12;99746.34;5068083;28;20056;-69
2022/09/04 11:44:49;;;;;;;2.35;0.70;;;;;;;29.94;11.80;99740.13;5069601;28;20062;-66
2022/09/04 11:47:46;;;;;;;1.58;0.68;;;;;;;29.24;12.13;99752.94;5036038;28;20040;-66
2022/09/04 11:50:55;;;;;;;5.20;0.82;;;;;;;28.50;12.55;99746.38;5052630;28;20134;-68
2022/09/04 11:53:54;;;;;;;1.27;0.50;;;;;;;27.78;12.50;99753.78;5049284;28;20080;-66
2022/09/04 11:56:50;;;;;;;1.90;0.90;;;;;;;27.17;13.38;99743.59;5052725;28;20055;-67
2022/09/04 11:59:33;;;;;;;1.17;0.77;;;;;;;26.97;14.02;99738.00;5033308;28;20390;-67
2022/09/04 12:02:24;;;;;;;2.40;2.20;;;;;;;26.90;14.37;99742.84;5052205;28;20036;-67
2022/09/04 12:05:02;;;;;;;1.95;1.00;;;;;;;26.78;14.72;99737.59;5068171;28;20064;-68
2022/09/04 12:07:45;;;;;;;1.15;0.90;;;;;;;26.74;14.88;99760.16;5072391;28;20068;-67
2022/09/04 12:10:45;;;;;;;2.88;0.90;;;;;;;26.48;14.70;99744.66;5085851;28;20123;-67
2022/09/04 12:13:26;;;;;;;2.72;0.80;;;;;;;26.12;15.24;99743.47;5051356;28;20128;-66
2022/09/04 12:16:16;;;;;;;1.27;0.90;;;;;;;25.89;16.31;99746.44;5060633;28;20511;-66
2022/09/04 12:19:00;;;;;;;2.28;0.90;;;;;;;25.49;16.11;99746.75;5037154;28;20052;-68
2022/09/04 12:21:51;;;;;;;3.38;1.30;;;;;;;25.55;16.09;99753.91;5068050;28;20028;-67
2022/09/04 12:25:00;;;;;;;1.65;1.13;;;;;;;25.53;16.01;99750.59;5052414;28;20518;-67
2022/09/04 12:27:57;;;;;;;1.80;1.00;;;;;;;25.49;16.39;99746.75;5048327;28;20048;-67
2022/09/04 12:31:16;;;;;;;3.83;1.15;;;;;;;25.41;16.42;99744.47;5068226;28;20511;-67
2022/09/04 12:33:57;;;;;;;1.88;0.98;;;;;;;25.01;16.23;99743.00;4994489;28;20532;-67
2022/09/04 12:36:45;;;;;;;4.78;0.82;;;;;;;24.86;16.36;99749.03;5053073;28;20044;-67
2022/09/04 12:39:25;;;;;;;1.00;0.90;;;;;;;24.55;16.67;99747.69;5053625;28;20404;-67
2022/09/04 12:42:07;;;;;;;2.63;1.00;;;;;;;24.30;18.08;99740.97;5072019;28;20044;-66
2022/09/04 12:44:56;;;;;;;1.67;1.02;;;;;;;23.97;17.63;99740.91;5038813;28;20052;-67
2022/09/04 12:47:31;;;;;;;2.17;1.00;;;;;;;23.72;18.26;99724.91;5038399;28;20068;-66
2022/09/04 12:50:31;;;;;;;3.97;1.27;;;;;;;23.94;17.85;99736.72;5055900;28;20040;-66
2022/09/04 12:53:29;;;;;;;3.75;1.30;;;;;;;23.91;18.20;99730.97;5038691;28;20044;-66
2022/09/04 12:56:02;;;;;;;2.38;1.20;;;;;;;23.72;20.15;99740.34;5072939;28;20071;-66
2022/09/04 12:58:30;;;;;;;1.60;0.93;;;;;;;23.05;19.11;99739.09;5055316;28;20052;-67
2022/09/04 13:00:58;;;;;;;5.18;1.13;;;;;;;23.15;19.39;99737.47;5071823;28;20139;-67
2022/09/04 13:03:29;;;;;;;7.60;1.30;;;;;;;23.04;19.62;99738.31;5038336;28;20519;-66
2022/09/04 13:06:02;;;;;;;;;;;;;;;23.24;18.86;99735.22;5022365;28;20036;-66